Time;durP1;ratioP1;P1;durP2;ratioP2;P2;SDS_P1;SDS_P2;PMS_P1;PMS_P2;Temp;Humidity;BMP_temperature;BMP_pressure;BME280_temperature;BME280_humidity;BME280_pressure;Samples;Min_cycle;Max_cycle;Signal;HPM_P1;HPM_P2
2022/02/08 00:00:53;;;;;;;18.13;4.13;;;5.70;99.90;;;;;;5037775;28;20159;-83
2022/02/08 00:03:19;;;;;;;24.42;4.90;;;5.80;99.90;;;;;;5036783;28;20231;-82
2022/02/08 00:05:54;;;;;;;24.02;4.25;;;5.80;99.90;;;;;;5053631;28;20070;-83
2022/02/08 00:08:20;;;;;;;26.17;5.50;;;5.60;99.90;;;;;;5065839;28;20056;-82
2022/02/08 00:10:46;;;;;;;29.23;4.50;;;5.80;99.90;;;;;;5062185;28;20101;-83
2022/02/08 00:13:11;;;;;;;28.45;4.68;;;5.60;99.90;;;;;;5040897;28;20056;-82
2022/02/08 00:15:37;;;;;;;25.77;4.20;;;5.70;99.90;;;;;;5047481;28;20040;-83
2022/02/08 00:18:02;;;;;;;22.65;4.97;;;5.70;99.90;;;;;;5044035;28;20102;-82
2022/02/08 00:20:28;;;;;;;23.02;4.30;;;6.00;99.90;;;;;;5053159;28;20094;-82
2022/02/08 00:22:53;;;;;;;19.45;4.80;;;5.70;99.90;;;;;;5055582;28;20462;-82
2022/02/08 00:25:19;;;;;;;22.73;4.55;;;5.70;99.90;;;;;;5038397;28;20033;-83
2022/02/08 00:27:44;;;;;;;31.02;4.78;;;5.80;99.90;;;;;;5050425;28;20723;-82
2022/02/08 00:30:10;;;;;;;28.45;4.53;;;5.70;99.90;;;;;;5035519;28;20044;-82
2022/02/08 00:32:36;;;;;;;28.73;6.18;;;5.70;99.90;;;;;;5065376;28;20036;-82
2022/02/08 00:35:02;;;;;;;27.98;6.30;;;5.80;99.90;;;;;;5053872;28;20075;-82
2022/02/08 00:37:28;;;;;;;31.33;5.35;;;5.80;99.90;;;;;;5070428;28;20045;-83
2022/02/08 00:39:53;;;;;;;25.58;5.15;;;5.70;99.90;;;;;;5043131;28;20514;-83
2022/02/08 00:42:20;;;;;;;28.05;4.97;;;5.80;99.90;;;;;;5040179;28;20050;-82
2022/02/08 00:44:51;;;;;;;33.30;4.72;;;5.80;99.90;;;;;;5034303;28;20128;-83
2022/02/08 00:47:34;;;;;;;26.40;6.00;;;5.90;99.90;;;;;;5040776;28;20032;-83
2022/02/08 00:50:06;;;;;;;24.27;5.40;;;5.80;99.90;;;;;;5034326;28;20045;-83
2022/02/08 00:52:34;;;;;;;27.45;6.82;;;5.80;99.90;;;;;;5040265;28;20123;-83
2022/02/08 00:54:59;;;;;;;24.83;4.97;;;5.90;99.90;;;;;;5037661;28;20051;-83
2022/02/08 00:57:25;;;;;;;24.30;5.78;;;5.90;99.90;;;;;;5052409;28;20033;-83
2022/02/08 00:59:51;;;;;;;22.70;5.47;;;5.90;99.90;;;;;;5034363;28;20119;-83
2022/02/08 01:02:17;;;;;;;27.08;5.25;;;5.90;99.90;;;;;;5068815;28;20043;-83
2022/02/08 01:04:48;;;;;;;25.33;6.20;;;6.00;99.90;;;;;;5038068;28;20033;-82
2022/02/08 01:07:14;;;;;;;33.92;6.30;;;5.90;99.90;;;;;;5044712;28;20060;-83
2022/02/08 01:12:05;;;;;;;39.47;7.05;;;6.00;99.90;;;;;;5052356;28;20136;-83
2022/02/08 01:14:37;;;;;;;29.90;5.88;;;6.00;99.90;;;;;;5041692;28;20036;-83
2022/02/08 01:17:04;;;;;;;30.17;7.22;;;6.10;99.90;;;;;;5035952;28;20056;-83
2022/02/08 01:19:29;;;;;;;32.03;6.68;;;6.10;99.90;;;;;;5047793;28;20043;-83
2022/02/08 01:21:55;;;;;;;32.17;6.75;;;6.10;99.90;;;;;;5036823;28;20045;-83
2022/02/08 01:24:20;;;;;;;33.42;7.68;;;6.10;99.90;;;;;;5036540;28;20484;-83
2022/02/08 01:26:53;;;;;;;29.95;7.55;;;6.20;99.90;;;;;;5042884;28;20040;-84
2022/02/08 01:31:46;;;;;;;34.80;7.40;;;6.20;99.90;;;;;;5056283;28;20052;-83
2022/02/08 01:34:35;;;;;;;32.63;7.80;;;6.30;99.90;;;;;;5055807;28;20109;-84
2022/02/08 01:39:33;;;;;;;35.88;8.50;;;6.40;99.90;;;;;;5057709;28;20111;-83
2022/02/08 01:45:03;;;;;;;34.97;8.30;;;6.50;99.90;;;;;;5060550;28;20067;-83
2022/02/08 01:47:42;;;;;;;35.92;9.70;;;6.60;99.90;;;;;;5043160;28;20029;-83
2022/02/08 01:50:11;;;;;;;27.63;8.00;;;6.70;99.90;;;;;;5046077;28;20040;-83
2022/02/08 01:52:38;;;;;;;28.02;9.68;;;6.60;99.90;;;;;;5052681;28;20036;-84
2022/02/08 01:55:06;;;;;;;23.73;9.70;;;6.80;99.90;;;;;;5073183;28;20504;-83
2022/02/08 01:57:31;;;;;;;22.73;8.63;;;6.70;99.90;;;;;;5059509;28;20040;-84
2022/02/08 01:59:57;;;;;;;25.75;9.65;;;6.60;99.90;;;;;;5060241;28;20040;-83
2022/02/08 02:02:23;;;;;;;26.35;8.55;;;6.70;99.90;;;;;;5050055;28;20040;-83
2022/02/08 02:04:48;;;;;;;24.30;8.95;;;6.70;99.90;;;;;;5088857;28;20040;-83
2022/02/08 02:07:17;;;;;;;23.23;8.73;;;6.80;99.90;;;;;;5047090;28;20040;-83
2022/02/08 02:09:47;;;;;;;25.42;9.52;;;6.80;99.90;;;;;;5071673;28;20032;-83
2022/02/08 02:12:13;;;;;;;24.85;10.50;;;6.90;99.90;;;;;;5037950;28;20051;-83
2022/02/08 02:14:40;;;;;;;22.58;9.68;;;6.90;99.90;;;;;;5043838;28;20308;-82
2022/02/08 02:17:08;;;;;;;25.15;10.18;;;6.90;99.90;;;;;;5058718;28;20032;-83
2022/02/08 02:19:35;;;;;;;29.60;10.45;;;6.90;99.90;;;;;;5045536;28;20036;-83
2022/02/08 02:22:02;;;;;;;22.55;11.63;;;7.00;99.90;;;;;;5072867;28;20060;-83
2022/02/08 02:24:28;;;;;;;25.45;10.68;;;7.00;99.90;;;;;;5069024;28;20040;-83
2022/02/08 02:26:57;;;;;;;35.38;13.18;;;7.00;99.90;;;;;;5044623;28;20443;-83
2022/02/08 02:29:24;;;;;;;34.72;12.32;;;7.00;99.90;;;;;;5038913;28;20107;-83
2022/02/08 02:31:50;;;;;;;37.25;12.75;;;7.00;99.90;;;;;;5041218;28;20033;-83
2022/02/08 02:34:17;;;;;;;41.47;12.68;;;7.10;99.90;;;;;;5060017;28;20086;-83
2022/02/08 02:36:44;;;;;;;35.47;12.48;;;7.10;99.90;;;;;;5038972;28;20412;-83
2022/02/08 02:39:10;;;;;;;30.83;13.88;;;7.20;99.90;;;;;;5037136;28;20036;-83
2022/02/08 02:41:41;;;;;;;34.80;13.75;;;7.20;99.90;;;;;;5041081;28;20052;-83
2022/02/08 02:44:09;;;;;;;38.38;13.38;;;7.30;99.90;;;;;;5071226;28;20044;-83
2022/02/08 02:46:36;;;;;;;37.70;13.18;;;7.20;99.90;;;;;;5060606;28;20046;-83
2022/02/08 02:49:02;;;;;;;42.00;13.77;;;7.30;99.90;;;;;;5041601;28;20053;-83
2022/02/08 02:51:29;;;;;;;38.10;13.35;;;7.30;99.90;;;;;;5053911;28;20037;-83
2022/02/08 02:53:54;;;;;;;36.47;12.25;;;7.30;99.90;;;;;;5066641;28;20037;-83
2022/02/08 02:56:20;;;;;;;27.67;11.75;;;7.40;99.90;;;;;;5056501;28;20055;-83
2022/02/08 02:58:46;;;;;;;37.20;13.00;;;7.40;99.90;;;;;;5054994;28;20036;-83
2022/02/08 03:03:52;;;;;;;28.80;11.77;;;7.50;99.90;;;;;;5055713;28;20431;-83
2022/02/08 03:17:52;;;;;;;33.15;11.43;;;7.60;99.90;;;;;;5058917;28;20662;-83
2022/02/08 03:20:12;;;;;;;36.20;10.32;;;7.60;99.90;;;;;;5051913;28;20187;-83
2022/02/08 03:22:37;;;;;;;42.75;11.75;;;7.70;99.90;;;;;;5055254;28;20082;-82
2022/02/08 03:25:03;;;;;;;39.20;10.70;;;7.70;99.90;;;;;;5067116;28;20098;-83
2022/02/08 03:27:29;;;;;;;27.83;10.20;;;7.70;99.90;;;;;;5050668;28;20476;-83
2022/02/08 03:29:54;;;;;;;35.55;10.40;;;7.80;99.90;;;;;;5038668;28;20051;-83
2022/02/08 03:32:22;;;;;;;37.15;11.57;;;7.70;99.90;;;;;;5066607;28;20045;-83
2022/02/08 03:34:48;;;;;;;36.88;10.10;;;7.80;99.90;;;;;;5064865;28;20059;-83
2022/02/08 03:37:14;;;;;;;34.20;10.48;;;7.80;99.90;;;;;;5064000;28;20586;-83
2022/02/08 03:39:42;;;;;;;34.90;9.75;;;7.80;99.90;;;;;;5062773;28;20047;-82
2022/02/08 03:42:21;;;;;;;30.67;9.73;;;7.80;99.90;;;;;;5052699;28;20036;-83
2022/02/08 03:44:49;;;;;;;34.03;10.05;;;7.80;99.90;;;;;;5052885;28;20051;-82
2022/02/08 03:47:16;;;;;;;30.65;9.52;;;7.90;99.90;;;;;;5051694;28;20079;-82
2022/02/08 03:49:42;;;;;;;36.90;10.27;;;7.90;99.90;;;;;;5033716;28;20152;-83
2022/02/08 03:52:08;;;;;;;34.13;9.52;;;7.90;99.90;;;;;;5053612;28;20044;-83
2022/02/08 03:54:34;;;;;;;31.33;9.10;;;8.50;99.90;;;;;;5032181;28;20104;-83
2022/02/08 03:57:01;;;;;;;37.58;10.25;;;8.00;99.90;;;;;;5052175;28;20101;-82
2022/02/08 03:59:27;;;;;;;36.35;9.13;;;8.00;99.90;;;;;;5035052;28;20059;-83
2022/02/08 04:04:50;;;;;;;27.40;9.23;;;8.00;99.90;;;;;;5050300;28;20119;-82
2022/02/08 04:09:42;;;;;;;28.00;8.57;;;8.10;99.90;;;;;;5053279;28;20151;-83
2022/02/08 04:12:15;;;;;;;31.10;8.73;;;8.10;99.90;;;;;;5035446;28;20073;-83
2022/02/08 04:14:49;;;;;;;27.08;8.45;;;8.10;99.90;;;;;;5064057;28;20430;-82
2022/02/08 04:41:30;;;;;;;25.33;7.78;;;8.30;99.90;;;;;;5051434;28;20053;-82
2022/02/08 04:49:23;;;;;;;22.83;6.05;;;8.30;99.90;;;;;;5052236;28;20124;-83
2022/02/08 04:51:54;;;;;;;27.25;6.75;;;8.40;99.90;;;;;;5037415;28;20513;-83
2022/02/08 04:54:30;;;;;;;28.92;6.80;;;8.40;99.90;;;;;;5035919;28;20411;-83
2022/02/08 05:42:48;;;;;;;25.55;5.28;;;8.40;99.90;;;;;;5048598;28;20135;-85
2022/02/08 05:47:48;;;;;;;25.40;4.57;;;8.40;99.90;;;;;;5039461;28;20036;-86
2022/02/08 05:53:28;;;;;;;18.02;4.57;;;8.40;99.90;;;;;;5054340;28;20108;-85
2022/02/08 05:55:55;;;;;;;21.45;4.05;;;8.40;99.90;;;;;;5049342;28;20635;-85
2022/02/08 05:58:21;;;;;;;23.17;5.15;;;8.40;99.90;;;;;;5064969;28;20062;-86
2022/02/08 06:00:47;;;;;;;20.27;4.22;;;8.50;99.90;;;;;;5039264;28;20558;-86
2022/02/08 06:03:13;;;;;;;24.95;4.35;;;8.40;99.90;;;;;;5037243;28;20056;-84
2022/02/08 06:05:39;;;;;;;16.83;3.45;;;8.40;99.90;;;;;;5058431;28;20841;-83
2022/02/08 06:08:05;;;;;;;21.20;4.97;;;8.40;99.90;;;;;;5056620;28;20045;-84
2022/02/08 06:10:32;;;;;;;20.35;4.80;;;8.40;99.90;;;;;;5035241;28;20580;-83
2022/02/08 06:12:58;;;;;;;23.00;4.15;;;8.40;99.90;;;;;;5052077;28;20123;-84
2022/02/08 06:15:25;;;;;;;17.85;3.30;;;8.40;99.90;;;;;;5035366;28;20127;-85
2022/02/08 06:17:55;;;;;;;21.42;4.22;;;8.40;99.90;;;;;;5041405;28;20049;-84
2022/02/08 06:20:22;;;;;;;23.75;3.90;;;8.40;99.90;;;;;;5048719;28;20127;-83
2022/02/08 06:22:48;;;;;;;21.95;3.25;;;8.40;99.90;;;;;;5041455;28;20041;-83
2022/02/08 06:25:16;;;;;;;21.38;4.25;;;8.40;99.90;;;;;;5032153;28;20081;-83
2022/02/08 06:27:48;;;;;;;13.98;3.13;;;8.50;99.90;;;;;;5031950;28;20059;-84
2022/02/08 06:30:15;;;;;;;27.77;3.75;;;8.40;99.90;;;;;;5052687;28;20575;-83
2022/02/08 06:32:41;;;;;;;20.00;3.60;;;8.50;99.90;;;;;;5051619;28;20112;-83
2022/02/08 06:35:15;;;;;;;20.05;3.88;;;8.50;99.90;;;;;;5062807;28;20105;-84
2022/02/08 06:37:41;;;;;;;18.53;3.07;;;8.50;99.90;;;;;;5052514;28;20036;-84
2022/02/08 06:40:09;;;;;;;16.98;3.17;;;8.50;99.90;;;;;;5050561;28;20048;-83
2022/02/08 06:42:35;;;;;;;21.90;3.42;;;8.50;99.90;;;;;;5037627;28;20190;-84
2022/02/08 06:45:03;;;;;;;22.70;4.13;;;8.50;99.90;;;;;;5043152;28;20064;-85
2022/02/08 06:47:31;;;;;;;18.25;3.22;;;8.50;99.90;;;;;;5065077;28;20132;-83
2022/02/08 06:49:56;;;;;;;20.55;4.25;;;8.50;99.90;;;;;;5061463;28;20036;-83
2022/02/08 06:52:22;;;;;;;17.85;3.67;;;8.50;99.90;;;;;;5053069;28;20047;-83
2022/02/08 06:54:48;;;;;;;20.10;3.90;;;8.60;99.90;;;;;;5038287;28;20123;-86
2022/02/08 06:57:50;;;;;;;23.55;3.33;;;8.50;99.90;;;;;;5057844;28;20040;-84
2022/02/08 07:00:20;;;;;;;13.07;3.13;;;8.60;99.90;;;;;;5033867;28;20057;-83
2022/02/08 07:02:46;;;;;;;19.02;3.35;;;8.50;99.90;;;;;;5052555;28;20041;-83
2022/02/08 07:05:21;;;;;;;20.65;3.00;;;8.50;99.90;;;;;;5060785;28;20040;-83
2022/02/08 07:07:47;;;;;;;19.50;3.70;;;8.60;99.90;;;;;;5039240;28;20145;-83
2022/02/08 07:10:13;;;;;;;15.38;2.45;;;8.60;99.90;;;;;;5033026;28;20102;-82
2022/02/08 07:12:40;;;;;;;19.58;4.03;;;8.50;99.90;;;;;;5054637;28;20040;-82
2022/02/08 07:15:11;;;;;;;15.40;2.75;;;8.60;99.90;;;;;;5068096;28;20045;-82
2022/02/08 07:17:37;;;;;;;23.67;3.50;;;8.60;99.90;;;;;;5050021;28;20032;-82
2022/02/08 07:20:03;;;;;;;23.90;3.47;;;8.60;99.90;;;;;;5051860;28;20033;-82
2022/02/08 07:22:31;;;;;;;22.30;3.45;;;8.50;99.90;;;;;;5042744;28;20032;-82
2022/02/08 07:24:57;;;;;;;22.48;3.28;;;9.30;99.90;;;;;;5040565;28;20036;-83
2022/02/08 07:27:22;;;;;;;15.32;2.83;;;8.60;99.90;;;;;;5033859;28;20043;-83
2022/02/08 07:29:52;;;;;;;20.95;2.83;;;8.60;99.90;;;;;;5039496;28;20033;-82
2022/02/08 07:32:19;;;;;;;19.02;2.53;;;8.60;99.90;;;;;;5046899;28;20562;-83
2022/02/08 07:34:55;;;;;;;20.08;2.97;;;8.60;99.90;;;;;;5052012;28;20044;-82
2022/02/08 07:37:33;;;;;;;17.67;3.05;;;8.60;99.90;;;;;;5030071;28;20062;-82
2022/02/08 07:40:03;;;;;;;16.25;3.10;;;8.60;99.90;;;;;;5043985;28;20051;-83
2022/02/08 07:42:29;;;;;;;17.67;3.20;;;8.70;99.90;;;;;;5060511;28;20094;-82
2022/02/08 07:44:54;;;;;;;13.93;1.88;;;8.60;99.90;;;;;;5040486;28;20064;-84
2022/02/08 07:47:20;;;;;;;17.17;2.65;;;8.60;99.90;;;;;;5056380;28;20071;-82
2022/02/08 07:49:46;;;;;;;18.45;2.38;;;8.60;99.90;;;;;;5061632;28;20041;-83
2022/02/08 07:52:11;;;;;;;16.98;2.78;;;8.70;99.90;;;;;;5028025;28;20040;-82
2022/02/08 07:54:39;;;;;;;15.32;2.17;;;8.70;99.90;;;;;;5043455;28;20067;-82
2022/02/08 07:57:05;;;;;;;17.17;3.03;;;8.70;99.90;;;;;;5025387;28;20045;-83
2022/02/08 07:59:31;;;;;;;20.77;3.50;;;8.70;99.90;;;;;;5033202;28;20530;-83
2022/02/08 08:01:56;;;;;;;20.50;2.72;;;8.80;99.90;;;;;;5040137;28;20029;-84
2022/02/08 08:04:22;;;;;;;12.68;2.05;;;8.70;99.90;;;;;;5028569;28;20032;-83
2022/02/08 08:06:47;;;;;;;22.85;3.53;;;8.80;99.90;;;;;;5025223;28;20072;-84
2022/02/08 08:09:13;;;;;;;19.85;2.50;;;8.80;99.90;;;;;;5044792;28;20059;-82
2022/02/08 08:11:40;;;;;;;16.95;2.47;;;8.80;99.90;;;;;;5027098;28;20119;-83
2022/02/08 08:14:07;;;;;;;14.07;2.35;;;8.80;99.90;;;;;;5030221;28;20036;-83
2022/02/08 08:21:38;;;;;;;16.27;2.78;;;8.80;99.90;;;;;;5040816;28;20596;-82
2022/02/08 08:24:05;;;;;;;14.95;2.22;;;8.80;99.90;;;;;;5025349;28;20062;-83
2022/02/08 08:26:32;;;;;;;13.27;3.00;;;8.90;99.90;;;;;;5039453;28;20055;-85
2022/02/08 08:28:59;;;;;;;17.70;3.72;;;8.90;99.90;;;;;;5041509;28;20033;-84
2022/02/08 08:31:25;;;;;;;15.70;2.50;;;8.90;99.90;;;;;;5044229;28;20476;-85
2022/02/08 08:33:50;;;;;;;21.60;3.00;;;8.90;99.90;;;;;;5041603;28;20167;-84
2022/02/08 08:36:20;;;;;;;16.88;3.50;;;8.90;99.90;;;;;;5028041;28;20040;-85
2022/02/08 08:38:52;;;;;;;15.68;2.90;;;8.90;99.90;;;;;;5028132;28;20036;-84
2022/02/08 08:44:17;;;;;;;17.13;3.50;;;8.90;99.90;;;;;;5044713;28;20033;-85
2022/02/08 08:49:49;;;;;;;22.05;3.00;;;8.90;99.90;;;;;;5043976;28;20079;-83
2022/02/08 08:52:10;;;;;;;11.27;2.38;;;9.00;99.90;;;;;;5045628;28;20101;-84
2022/02/08 08:54:36;;;;;;;16.65;2.78;;;9.00;99.90;;;;;;5030320;28;20036;-85
2022/02/08 08:57:03;;;;;;;16.38;2.67;;;9.00;99.90;;;;;;5059398;28;20727;-85
2022/02/08 08:59:29;;;;;;;15.77;2.70;;;9.00;99.90;;;;;;5027286;28;20087;-84
2022/02/08 09:01:55;;;;;;;15.15;3.05;;;9.00;99.90;;;;;;5043733;28;20029;-85
2022/02/08 09:04:20;;;;;;;17.17;3.05;;;9.20;99.90;;;;;;5028894;28;20032;-85
2022/02/08 09:06:50;;;;;;;15.43;2.50;;;9.10;99.90;;;;;;5030079;28;20473;-85
2022/02/08 09:09:23;;;;;;;18.15;2.58;;;9.10;99.90;;;;;;5027720;28;20068;-86
2022/02/08 09:12:14;;;;;;;16.73;3.50;;;9.10;99.90;;;;;;5057166;28;20053;-85
2022/02/08 09:29:48;;;;;;;15.85;3.38;;;9.30;99.90;;;;;;5048280;28;20044;-85
2022/02/08 09:32:20;;;;;;;15.50;3.35;;;9.30;99.90;;;;;;5044669;28;20076;-86
2022/02/08 09:35:30;;;;;;;12.88;2.50;;;9.30;99.90;;;;;;5061801;28;20747;-86
2022/02/08 09:37:59;;;;;;;14.32;2.55;;;9.40;99.90;;;;;;5049605;28;20100;-87
2022/02/08 09:40:34;;;;;;;20.45;3.63;;;9.40;99.90;;;;;;5063928;28;20052;-86
2022/02/08 09:43:58;;;;;;;12.55;2.42;;;9.50;99.90;;;;;;5040937;28;20118;-86
2022/02/08 09:46:29;;;;;;;21.85;3.47;;;9.60;99.90;;;;;;5050937;28;20043;-86
2022/02/08 09:56:10;;;;;;;18.02;2.28;;;9.70;99.90;;;;;;5067042;28;20036;-86
2022/02/08 09:58:36;;;;;;;18.02;2.75;;;9.80;99.90;;;;;;5036283;28;20037;-83
2022/02/08 10:01:10;;;;;;;13.15;2.38;;;9.70;99.90;;;;;;5058093;28;20041;-83
2022/02/08 10:03:47;;;;;;;13.63;2.35;;;9.80;99.90;;;;;;5062282;28;20040;-83
2022/02/08 10:06:13;;;;;;;17.27;3.30;;;9.80;99.90;;;;;;5048372;28;20503;-84
2022/02/08 10:08:39;;;;;;;11.25;2.00;;;9.80;99.90;;;;;;5032453;28;20036;-84
2022/02/08 10:11:23;;;;;;;16.20;2.38;;;9.80;99.90;;;;;;5027170;28;20061;-85
2022/02/08 10:14:18;;;;;;;12.75;2.13;;;9.90;99.90;;;;;;5030441;28;20069;-84
2022/02/08 10:22:40;;;;;;;10.63;1.70;;;9.90;99.90;;;;;;5046107;28;20122;-84
2022/02/08 10:25:06;;;;;;;11.02;1.77;;;9.90;99.90;;;;;;5053755;28;20048;-84
2022/02/08 10:27:39;;;;;;;12.43;2.08;;;10.00;99.90;;;;;;5048005;28;20045;-84
2022/02/08 10:38:20;;;;;;;12.75;2.65;;;10.10;99.90;;;;;;5045543;28;20197;-84
2022/02/08 10:40:46;;;;;;;11.40;2.00;;;10.10;99.90;;;;;;5041193;28;20135;-84
2022/02/08 10:43:16;;;;;;;10.23;1.75;;;10.30;99.90;;;;;;5034671;28;20500;-85
2022/02/08 10:45:42;;;;;;;11.55;1.63;;;10.10;99.90;;;;;;5031069;28;20123;-84
2022/02/08 10:48:10;;;;;;;9.85;1.60;;;10.10;99.90;;;;;;5034525;28;20433;-84
2022/02/08 10:50:42;;;;;;;11.55;1.92;;;10.10;99.90;;;;;;5032125;28;20033;-85
2022/02/08 10:53:10;;;;;;;15.90;1.95;;;10.20;99.90;;;;;;5062208;28;20055;-86
2022/02/08 11:03:04;;;;;;;11.68;2.38;;;10.10;99.90;;;;;;5046177;28;20044;-85
2022/02/08 11:05:55;;;;;;;11.55;2.20;;;10.20;99.90;;;;;;5033877;28;20403;-84
2022/02/08 11:08:36;;;;;;;15.57;2.30;;;10.20;99.90;;;;;;5037688;28;20033;-84
2022/02/08 11:19:55;;;;;;;13.98;2.83;;;10.20;99.90;;;;;;5045253;28;20400;-84
2022/02/08 11:26:45;;;;;;;13.27;2.05;;;10.20;99.90;;;;;;5069157;28;20048;-84
2022/02/08 11:29:23;;;;;;;14.35;2.72;;;10.20;99.90;;;;;;5038940;28;20552;-83
2022/02/08 11:32:10;;;;;;;19.67;3.55;;;10.20;99.90;;;;;;5041468;28;20044;-84
2022/02/08 11:40:40;;;;;;;13.82;2.47;;;10.20;99.90;;;;;;5045612;28;20075;-83
2022/02/08 11:43:29;;;;;;;19.95;2.95;;;10.20;99.90;;;;;;5047994;28;20067;-84
2022/02/08 11:46:37;;;;;;;9.25;2.00;;;10.20;99.90;;;;;;5046930;28;20511;-83
2022/02/08 12:02:39;;;;;;;14.15;2.80;;;10.20;99.90;;;;;;5036793;28;20514;-85
2022/02/08 12:05:12;;;;;;;13.63;1.92;;;10.30;99.90;;;;;;5043324;28;20172;-84
2022/02/08 12:07:50;;;;;;;14.00;1.75;;;10.20;99.90;;;;;;5046582;28;20119;-84
2022/02/08 12:13:12;;;;;;;15.13;2.85;;;10.20;99.90;;;;;;5041596;28;20512;-84
2022/02/08 12:28:18;;;;;;;14.80;2.08;;;10.30;99.90;;;;;;5038474;28;20481;-84
2022/02/08 13:02:44;;;;;;;16.13;2.30;;;10.60;99.90;;;;;;5036744;28;20044;-84
2022/02/08 13:25:02;;;;;;;14.25;3.20;;;10.50;99.90;;;;;;5041719;28;20127;-84
2022/02/08 14:04:05;;;;;;;9.90;2.53;;;10.40;99.90;;;;;;5044643;28;20040;-85
2022/02/08 14:16:59;;;;;;;15.48;2.17;;;10.30;99.90;;;;;;5048580;28;20045;-84
2022/02/08 14:19:50;;;;;;;11.30;1.98;;;10.30;99.90;;;;;;5032074;28;20049;-84
2022/02/08 14:22:31;;;;;;;12.32;2.17;;;10.30;99.90;;;;;;5046938;28;20087;-84
2022/02/08 14:25:16;;;;;;;15.80;2.72;;;10.30;99.90;;;;;;5030219;28;20151;-84
2022/02/08 14:30:32;;;;;;;15.25;3.13;;;10.30;99.90;;;;;;5049138;28;20124;-85
2022/02/08 14:57:29;;;;;;;14.77;2.70;;;10.40;99.90;;;;;;5047524;28;20051;-85
2022/02/08 16:06:57;;;;;;;17.20;3.33;;;9.90;99.90;;;;;;5000393;28;20107;-85
2022/02/08 16:17:42;;;;;;;17.30;3.10;;;10.10;99.90;;;;;;5053147;28;20151;-86
2022/02/08 16:33:59;;;;;;;12.13;2.83;;;9.80;99.90;;;;;;5044349;28;20052;-85
2022/02/08 16:51:55;;;;;;;23.20;5.15;;;9.90;99.90;;;;;;5014842;28;20128;-85
2022/02/08 16:56:51;;;;;;;18.08;4.53;;;9.80;99.90;;;;;;5047711;28;20053;-85
2022/02/08 16:59:35;;;;;;;18.38;3.53;;;9.80;99.90;;;;;;5053790;28;20143;-86
2022/02/08 17:02:04;;;;;;;12.10;3.20;;;9.80;99.90;;;;;;5060792;28;20132;-84
2022/02/08 17:04:30;;;;;;;19.80;3.88;;;10.60;99.90;;;;;;5036572;28;20063;-84
2022/02/08 17:06:56;;;;;;;11.27;2.63;;;9.80;99.90;;;;;;5028589;28;20115;-84
2022/02/08 17:12:18;;;;;;;13.63;2.90;;;9.70;99.90;;;;;;5031236;28;20044;-84
2022/02/08 17:17:30;;;;;;;11.23;1.73;;;9.80;99.90;;;;;;5043845;28;20131;-83
2022/02/08 17:37:27;;;;;;;10.82;2.30;;;9.80;99.90;;;;;;5046295;28;20047;-83
2022/02/08 17:49:39;;;;;;;15.30;3.05;;;9.60;99.90;;;;;;5048713;28;20135;-82
2022/02/08 17:52:04;;;;;;;11.25;2.42;;;9.60;99.90;;;;;;5035856;28;20090;-83
2022/02/08 17:54:30;;;;;;;11.48;2.13;;;9.60;99.90;;;;;;5033754;28;20040;-83
2022/02/08 17:56:57;;;;;;;15.75;2.20;;;9.50;99.90;;;;;;5030124;28;20036;-83
2022/02/08 17:59:24;;;;;;;13.93;2.25;;;9.50;99.90;;;;;;5053012;28;20045;-82
2022/02/08 18:01:53;;;;;;;13.73;1.70;;;9.50;99.90;;;;;;5062428;28;20558;-82
2022/02/08 18:04:20;;;;;;;12.88;2.03;;;9.50;99.90;;;;;;5046157;28;20029;-82
2022/02/08 18:06:45;;;;;;;10.65;2.45;;;9.60;99.90;;;;;;5043618;28;20094;-82
2022/02/08 18:09:13;;;;;;;14.43;2.22;;;9.60;99.90;;;;;;5031584;28;20037;-83
2022/02/08 18:11:41;;;;;;;13.15;2.97;;;9.50;99.90;;;;;;5027386;28;20044;-83
2022/02/08 18:14:09;;;;;;;13.65;3.03;;;9.60;99.90;;;;;;5046995;28;20419;-83
2022/02/08 18:16:36;;;;;;;10.07;1.60;;;9.60;99.90;;;;;;5061602;28;20044;-83
2022/02/08 18:19:12;;;;;;;13.35;2.00;;;9.60;99.90;;;;;;5025275;28;20064;-84
2022/02/08 18:21:45;;;;;;;7.82;1.10;;;9.60;99.90;;;;;;5062014;28;20091;-83
2022/02/08 19:12:40;;;;;;;11.57;1.33;;;9.70;99.90;;;;;;5064036;28;20551;-85
2022/02/08 19:15:34;;;;;;;9.23;1.42;;;9.60;99.90;;;;;;5063151;28;20539;-84
2022/02/08 19:20:35;;;;;;;8.73;1.50;;;9.50;99.90;;;;;;5062135;28;20052;-84
2022/02/08 19:23:01;;;;;;;10.65;1.73;;;9.60;99.90;;;;;;5071813;28;20032;-84
2022/02/08 19:25:26;;;;;;;7.65;1.88;;;9.40;99.90;;;;;;5041625;28;20059;-84
2022/02/08 19:27:54;;;;;;;11.50;1.80;;;9.50;99.90;;;;;;5043236;28;20047;-84
2022/02/08 19:30:20;;;;;;;9.23;1.90;;;9.40;99.90;;;;;;5056999;28;20048;-83
2022/02/08 19:32:46;;;;;;;7.30;1.45;;;9.40;99.90;;;;;;5037892;28;20059;-84
2022/02/08 19:35:14;;;;;;;10.18;1.75;;;9.40;99.90;;;;;;5054820;28;20044;-83
2022/02/08 19:37:40;;;;;;;8.80;1.83;;;9.30;99.90;;;;;;5062852;28;20044;-83
2022/02/08 19:40:07;;;;;;;6.25;1.23;;;9.30;99.90;;;;;;5035907;28;20045;-84
2022/02/08 19:42:36;;;;;;;9.98;2.47;;;9.30;99.90;;;;;;5034119;28;20136;-84
2022/02/08 19:45:42;;;;;;;14.00;2.25;;;9.20;99.90;;;;;;5060804;28;20692;-85
2022/02/08 19:47:58;;;;;;;12.05;2.70;;;9.30;99.90;;;;;;5047770;28;20445;-83
2022/02/08 19:50:23;;;;;;;14.88;3.30;;;9.20;99.90;;;;;;5028586;28;20044;-84
2022/02/08 19:52:50;;;;;;;8.88;2.63;;;9.20;99.90;;;;;;5026722;28;20044;-83
2022/02/08 19:55:29;;;;;;;16.90;5.90;;;9.20;99.90;;;;;;5028083;28;20045;-84
2022/02/08 19:57:56;;;;;;;9.55;3.28;;;9.10;99.90;;;;;;5026674;28;20131;-84
2022/02/08 20:00:28;;;;;;;12.82;4.20;;;9.20;99.90;;;;;;5025697;28;20583;-84
2022/02/08 20:02:57;;;;;;;16.38;4.72;;;9.10;99.90;;;;;;5043914;28;20385;-84
2022/02/08 20:05:28;;;;;;;13.65;5.03;;;9.10;99.90;;;;;;5042357;28;20044;-84
2022/02/08 20:07:54;;;;;;;14.82;4.90;;;9.00;99.90;;;;;;5032377;28;20228;-83
2022/02/08 20:10:20;;;;;;;15.38;4.45;;;9.10;99.90;;;;;;5051032;28;20044;-83
2022/02/08 20:12:46;;;;;;;16.88;4.90;;;9.00;99.90;;;;;;5077103;28;20452;-84
2022/02/08 20:15:12;;;;;;;12.73;5.40;;;9.00;99.90;;;;;;5050552;28;20074;-83
2022/02/08 20:17:38;;;;;;;9.77;5.57;;;9.00;99.90;;;;;;5035692;28;20071;-84
2022/02/08 20:20:10;;;;;;;13.13;5.25;;;9.00;99.90;;;;;;5046200;28;20554;-84
2022/02/08 20:22:36;;;;;;;13.18;5.45;;;8.90;99.90;;;;;;5031399;28;20055;-84
2022/02/08 20:25:08;;;;;;;14.93;5.63;;;8.90;99.90;;;;;;5046830;28;20547;-83
2022/02/08 20:27:45;;;;;;;18.17;6.90;;;8.90;99.90;;;;;;5047253;28;20476;-82
2022/02/08 20:30:12;;;;;;;16.98;6.00;;;8.90;99.90;;;;;;5038741;28;20045;-82
2022/02/08 20:32:38;;;;;;;17.38;7.20;;;8.90;99.90;;;;;;5034731;28;20049;-84
2022/02/08 20:35:05;;;;;;;22.10;7.63;;;8.80;99.90;;;;;;5033082;28;20044;-82
2022/02/08 20:37:30;;;;;;;19.08;7.22;;;8.90;99.90;;;;;;5052131;28;20049;-83
2022/02/08 20:39:56;;;;;;;16.20;7.68;;;8.80;99.90;;;;;;5050907;28;20801;-84
2022/02/08 20:42:25;;;;;;;15.65;7.82;;;8.80;99.90;;;;;;5034038;28;20073;-83
2022/02/08 20:44:51;;;;;;;18.65;7.50;;;8.80;99.90;;;;;;5039120;28;20039;-83
2022/02/08 20:47:25;;;;;;;19.05;8.32;;;8.80;99.90;;;;;;5034046;28;20040;-82
2022/02/08 20:49:58;;;;;;;21.60;8.35;;;8.80;99.90;;;;;;5027726;28;20041;-83
2022/02/08 20:52:25;;;;;;;18.23;8.48;;;8.80;99.90;;;;;;5046031;28;20041;-84
2022/02/08 20:55:06;;;;;;;22.10;8.35;;;8.80;99.90;;;;;;5030511;28;20526;-85
2022/02/08 20:57:37;;;;;;;15.50;7.43;;;8.80;99.90;;;;;;5044057;28;20036;-84
2022/02/08 21:00:09;;;;;;;13.70;8.60;;;8.70;99.90;;;;;;5032736;28;20053;-83
2022/02/08 21:02:38;;;;;;;17.23;8.93;;;8.70;99.90;;;;;;5026174;28;20043;-84
2022/02/08 21:07:39;;;;;;;;;;;8.70;99.90;;;;;;5044709;28;20056;-84
2022/02/08 21:10:05;;;;;;;16.20;8.73;;;8.80;99.90;;;;;;5043663;28;20428;-84
2022/02/08 21:12:41;;;;;;;17.88;9.88;;;8.80;99.90;;;;;;5034825;28;20124;-83
2022/02/08 21:15:09;;;;;;;;;;;8.70;99.90;;;;;;5049502;28;20515;-83
2022/02/08 21:17:41;;;;;;;17.58;8.75;;;8.70;99.90;;;;;;5032135;28;20003;-85
2022/02/08 21:20:10;;;;;;;16.65;9.60;;;8.70;99.90;;;;;;5014637;28;20044;-83
2022/02/08 21:22:36;;;;;;;13.82;8.80;;;8.70;99.90;;;;;;5053971;28;20048;-83
2022/02/08 21:25:03;;;;;;;19.25;9.82;;;8.60;99.90;;;;;;5036913;28;20037;-83
2022/02/08 21:27:30;;;;;;;19.48;9.27;;;8.60;99.90;;;;;;5033389;28;20093;-83
2022/02/08 21:30:19;;;;;;;25.42;9.18;;;8.70;99.90;;;;;;5032993;28;20036;-83
2022/02/08 21:53:22;;;;;;;17.52;7.85;;;8.70;99.90;;;;;;5053255;28;20040;-83
2022/02/08 21:55:47;;;;;;;15.10;7.30;;;8.70;99.90;;;;;;5052484;28;20043;-83
2022/02/08 21:58:13;;;;;;;15.85;7.38;;;8.70;99.90;;;;;;5039938;28;20051;-83
2022/02/08 22:00:39;;;;;;;15.70;7.80;;;8.70;99.90;;;;;;5037802;28;20381;-83
2022/02/08 22:03:07;;;;;;;15.30;7.43;;;8.80;99.90;;;;;;5041393;28;20089;-84
2022/02/08 22:05:33;;;;;;;18.02;7.28;;;8.70;99.90;;;;;;5065788;28;20032;-83
2022/02/08 22:08:13;;;;;;;13.52;7.75;;;8.70;99.90;;;;;;5049109;28;20085;-83
2022/02/08 22:18:52;;;;;;;10.30;7.32;;;8.80;99.90;;;;;;5081840;28;20071;-82